createdAt,value
2019-01-17T00:08:24.000Z,992.687
2019-01-17T00:18:24.000Z,992.687
2019-01-17T00:28:24.000Z,992.699
2019-01-17T00:38:24.000Z,992.711
2019-01-17T00:48:24.000Z,992.689
2019-01-17T00:58:24.000Z,992.636
2019-01-17T01:08:24.000Z,992.587
2019-01-17T01:18:24.000Z,992.59
2019-01-17T01:28:27.000Z,992.685
2019-01-17T01:38:24.000Z,992.831
2019-01-17T01:48:24.000Z,992.859
2019-01-17T01:58:24.000Z,993.037
2019-01-17T02:08:24.000Z,993.093
2019-01-17T02:28:24.000Z,993.272
2019-01-17T02:38:24.000Z,993.358
2019-01-17T02:48:24.000Z,993.214
2019-01-17T02:58:24.000Z,993.267
2019-01-17T03:08:24.000Z,993.344
2019-01-17T03:18:24.000Z,993.306
2019-01-17T03:28:26.000Z,993.191
2019-01-17T03:38:24.000Z,993.175
2019-01-17T03:48:24.000Z,993.184
2019-01-17T03:58:24.000Z,993.248
2019-01-17T04:08:24.000Z,993.168
2019-01-17T04:18:24.000Z,993.132
2019-01-17T04:28:24.000Z,993.206
2019-01-17T04:38:24.000Z,993.195
2019-01-17T04:48:24.000Z,992.999
2019-01-17T04:58:24.000Z,993.143
2019-01-17T05:08:24.000Z,993.106
2019-01-17T05:18:24.000Z,993.081
2019-01-17T05:28:24.000Z,993.162
2019-01-17T05:38:24.000Z,993.106
2019-01-17T05:48:24.000Z,993.047
2019-01-17T05:58:24.000Z,993.109
2019-01-17T06:08:24.000Z,993.11
2019-01-17T06:18:24.000Z,993.045
2019-01-17T06:28:24.000Z,992.984
2019-01-17T06:38:25.000Z,992.997
2019-01-17T06:48:24.000Z,992.972
2019-01-17T06:58:24.000Z,992.988
2019-01-17T07:08:24.000Z,993.148
2019-01-17T07:18:24.000Z,993.155
2019-01-17T07:28:24.000Z,993.155
2019-01-17T07:38:25.000Z,993.109
2019-01-17T07:48:25.000Z,993.104
2019-01-17T07:58:27.000Z,993.071
2019-01-17T08:08:25.000Z,993.134
2019-01-17T08:18:25.000Z,993.163
2019-01-17T08:28:25.000Z,993.254
2019-01-17T08:38:25.000Z,993.387
2019-01-17T08:48:25.000Z,993.312
2019-01-17T08:58:25.000Z,993.288
2019-01-17T09:08:25.000Z,993.301
2019-01-17T09:18:25.000Z,993.323
2019-01-17T09:28:25.000Z,993.285
2019-01-17T09:38:25.000Z,993.302
2019-01-17T09:48:25.000Z,993.084
2019-01-17T09:58:25.000Z,992.985
2019-01-17T10:08:25.000Z,992.889
2019-01-17T10:18:25.000Z,992.87
2019-01-17T10:28:25.000Z,992.747
2019-01-17T10:38:25.000Z,992.559
2019-01-17T10:48:25.000Z,992.47
2019-01-17T10:58:25.000Z,992.391
2019-01-17T11:08:25.000Z,992.393
2019-01-17T11:18:25.000Z,992.336
2019-01-17T11:28:25.000Z,992.313
2019-01-17T11:38:25.000Z,992.332
2019-01-17T11:48:25.000Z,992.366
2019-01-17T11:58:25.000Z,992.52
2019-01-17T12:08:25.000Z,992.605
2019-01-17T12:18:25.000Z,992.518
2019-01-17T12:28:25.000Z,992.42
2019-01-17T12:38:25.000Z,992.516
2019-01-17T12:48:25.000Z,992.582
2019-01-17T12:58:25.000Z,992.586
2019-01-17T13:08:25.000Z,992.642
2019-01-17T13:18:25.000Z,992.694
2019-01-17T13:28:25.000Z,992.838
2019-01-17T13:38:26.000Z,992.905
2019-01-17T13:48:25.000Z,993.127
2019-01-17T13:58:25.000Z,993.29
2019-01-17T14:08:25.000Z,993.481
2019-01-17T14:18:25.000Z,993.712
2019-01-17T14:28:25.000Z,993.78
2019-01-17T14:38:25.000Z,994.032
2019-01-17T14:48:27.000Z,994.267
2019-01-17T14:58:25.000Z,994.566
2019-01-17T15:08:25.000Z,994.856
2019-01-17T15:18:25.000Z,995.23
2019-01-17T15:28:26.000Z,995.333
2019-01-17T15:38:26.000Z,995.437
2019-01-17T15:48:26.000Z,995.507
2019-01-17T15:58:26.000Z,995.696
2019-01-17T16:08:26.000Z,995.989
2019-01-17T16:18:26.000Z,996.192
2019-01-17T16:28:26.000Z,996.418
2019-01-17T16:38:26.000Z,996.436
2019-01-17T16:48:26.000Z,996.504
2019-01-17T16:58:26.000Z,996.68
2019-01-17T17:08:26.000Z,996.802
2019-01-17T17:18:26.000Z,996.974
2019-01-17T17:28:26.000Z,997.206
2019-01-17T17:38:26.000Z,997.299
2019-01-17T17:48:26.000Z,997.414
2019-01-17T17:58:26.000Z,997.521
2019-01-17T18:08:26.000Z,997.895
2019-01-17T18:18:26.000Z,998.011
2019-01-17T18:28:26.000Z,998.14
2019-01-17T18:38:26.000Z,998.306
2019-01-17T18:48:26.000Z,998.502
2019-01-17T18:58:27.000Z,998.8
2019-01-17T19:08:26.000Z,999.016
2019-01-17T19:18:26.000Z,999.108
2019-01-17T19:28:26.000Z,999.413
2019-01-17T19:38:26.000Z,999.588
2019-01-17T19:48:26.000Z,999.807
2019-01-17T19:58:26.000Z,999.85
2019-01-17T20:08:26.000Z,1000.013
2019-01-17T20:28:26.000Z,1000.508
2019-01-17T20:38:26.000Z,1000.711
2019-01-17T20:48:26.000Z,1000.781
2019-01-17T20:58:26.000Z,1001.093
2019-01-17T21:08:26.000Z,1001.371
2019-01-17T21:18:27.000Z,1001.65
2019-01-17T21:28:26.000Z,1001.663
2019-01-17T21:38:26.000Z,1001.867
2019-01-17T21:48:26.000Z,1002.21
2019-01-17T21:58:26.000Z,1002.308
2019-01-17T22:08:26.000Z,1002.509
2019-01-17T22:18:26.000Z,1002.565
2019-01-17T22:28:26.000Z,1002.584
2019-01-17T22:38:26.000Z,1002.873
2019-01-17T22:48:26.000Z,1002.92
2019-01-17T22:58:26.000Z,1003.128
2019-01-17T23:08:26.000Z,1003.337
2019-01-17T23:18:27.000Z,1003.451
2019-01-17T23:28:26.000Z,1003.636
2019-01-17T23:38:26.000Z,1003.845
2019-01-17T23:48:26.000Z,1003.977
2019-01-17T23:58:27.000Z,1004.158
